createdAt,value
2017-01-12T00:00:53.995Z,89.48
2017-01-12T00:01:53.998Z,89.48
2017-01-12T00:02:53.586Z,89.2
2017-01-12T00:03:53.582Z,89.29
2017-01-12T00:04:53.982Z,89.39
2017-01-12T00:05:53.981Z,89.39
2017-01-12T00:06:53.973Z,89.39
2017-01-12T00:07:53.982Z,89.67
2017-01-12T00:08:53.977Z,89.48
2017-01-12T00:09:53.973Z,89.58
2017-01-12T00:10:53.965Z,89.58
2017-01-12T00:11:53.552Z,89.77
2017-01-12T00:12:53.548Z,89.29
2017-01-12T00:13:53.956Z,89.86
2017-01-12T00:14:53.952Z,89.67
2017-01-12T00:15:53.944Z,89.48
2017-01-12T00:16:53.940Z,89.29
2017-01-12T00:17:53.940Z,89.29
2017-01-12T00:18:53.524Z,89.39
2017-01-12T00:19:53.940Z,89.39
2017-01-12T00:20:53.519Z,89.48
2017-01-12T00:21:53.927Z,89.39
2017-01-12T00:22:53.919Z,89.29
2017-01-12T00:23:53.919Z,89.39
2017-01-12T00:24:53.918Z,89.2
2017-01-12T00:25:53.911Z,88.92
2017-01-12T00:26:53.914Z,88.82
2017-01-12T00:27:53.910Z,88.92
2017-01-12T00:28:53.494Z,88.82
2017-01-12T00:29:53.490Z,88.63
2017-01-12T00:30:53.898Z,88.73
2017-01-12T00:31:53.894Z,88.92
2017-01-12T00:32:53.886Z,88.92
2017-01-12T00:33:53.882Z,89.01
2017-01-12T00:34:53.881Z,89.01
2017-01-12T00:35:53.881Z,89.01
2017-01-12T00:36:53.462Z,88.73
2017-01-12T00:37:53.453Z,88.73
2017-01-12T00:38:53.861Z,88.35
2017-01-12T00:39:53.861Z,88.54
2017-01-12T00:40:53.861Z,88.73
2017-01-12T00:41:53.857Z,88.06
2017-01-12T00:42:53.849Z,88.25
2017-01-12T00:43:53.437Z,88.35
2017-01-12T00:44:53.433Z,88.35
2017-01-12T00:45:53.432Z,88.63
2017-01-12T00:46:53.837Z,88.44
2017-01-12T00:47:53.837Z,88.54
2017-01-12T00:48:53.828Z,89.01
2017-01-12T00:49:53.833Z,88.06
2017-01-12T00:50:53.816Z,88.25
2017-01-12T00:51:53.412Z,88.06
2017-01-12T00:52:53.412Z,88.25
2017-01-12T00:53:53.408Z,88.35
2017-01-12T00:54:53.804Z,89.01
2017-01-12T00:55:53.812Z,88.06
2017-01-12T00:56:53.804Z,88.16
2017-01-12T00:57:53.808Z,88.63
2017-01-12T00:58:53.792Z,88.73
2017-01-12T00:59:53.796Z,88.54
2017-01-12T01:00:53.380Z,89.01
2017-01-12T01:01:53.377Z,88.54
2017-01-12T01:02:53.784Z,88.54
2017-01-12T01:03:53.780Z,88.82
2017-01-12T01:04:53.784Z,88.54
2017-01-12T01:05:53.772Z,88.73
2017-01-12T01:06:53.772Z,88.54
2017-01-12T01:07:53.769Z,88.73
2017-01-12T01:08:53.761Z,88.54
2017-01-12T01:09:53.345Z,88.54
2017-01-12T01:10:53.756Z,88.82
2017-01-12T01:11:53.760Z,88.54
2017-01-12T01:12:53.745Z,88.73
2017-01-12T01:13:53.757Z,88.63
2017-01-12T01:14:53.740Z,88.54
2017-01-12T01:15:53.741Z,88.73
2017-01-12T01:16:53.733Z,89.01
2017-01-12T01:17:53.737Z,88.54
2017-01-12T01:18:53.317Z,88.39
2017-01-12T01:19:53.316Z,88.35
2017-01-12T01:20:53.724Z,88.63
2017-01-12T01:21:53.724Z,88.77
2017-01-12T01:22:53.717Z,88.68
2017-01-12T01:23:53.709Z,88.44
2017-01-12T01:24:53.709Z,88.35
2017-01-12T01:25:53.713Z,88.29
2017-01-12T01:26:53.293Z,87.97
2017-01-12T01:27:53.320Z,87.82
2017-01-12T01:28:53.689Z,88.16
2017-01-12T01:29:53.289Z,88.06
2017-01-12T01:30:53.701Z,88.16
2017-01-12T01:31:53.688Z,88.16
2017-01-12T01:32:53.685Z,88.16
2017-01-12T01:33:53.273Z,88.39
2017-01-12T01:34:53.680Z,88.2
2017-01-12T01:35:53.265Z,88.39
2017-01-12T01:36:53.669Z,88.1
2017-01-12T01:37:53.669Z,87.97
2017-01-12T01:38:53.665Z,88.01
2017-01-12T01:39:53.665Z,87.97
2017-01-12T01:40:53.661Z,87.77
2017-01-12T01:41:53.649Z,87.77
2017-01-12T01:42:53.653Z,88.06
2017-01-12T01:43:53.649Z,87.49
2017-01-12T01:44:53.642Z,87.77
2017-01-12T01:45:53.638Z,87.92
2017-01-12T01:46:53.638Z,88.06
2017-01-12T01:47:53.638Z,87.92
2017-01-12T01:48:53.626Z,87.97
2017-01-12T01:49:53.631Z,87.87
2017-01-12T01:50:53.213Z,87.87
2017-01-12T01:51:53.215Z,87.68
2017-01-12T01:52:53.614Z,87.97
2017-01-12T01:53:53.616Z,87.68
2017-01-12T01:54:53.612Z,88.1
2017-01-12T01:55:53.612Z,87.4
2017-01-12T01:56:53.608Z,87.68
2017-01-12T01:57:53.600Z,87.3
2017-01-12T01:58:53.184Z,87.4
2017-01-12T01:59:53.188Z,87.49
2017-01-12T02:00:53.177Z,87.12
2017-01-12T02:01:53.176Z,87.49
2017-01-12T02:02:53.589Z,87.63
2017-01-12T02:03:53.593Z,87.45
2017-01-12T02:04:53.585Z,87.25
2017-01-12T02:05:53.570Z,87.54
2017-01-12T02:06:53.573Z,86.97
2017-01-12T02:07:53.158Z,87.16
2017-01-12T02:08:53.158Z,87.16
2017-01-12T02:09:53.158Z,87.16
2017-01-12T02:10:53.562Z,87.21
2017-01-12T02:11:53.554Z,87.21
2017-01-12T02:12:53.555Z,87.12
2017-01-12T02:13:53.546Z,87.21
2017-01-12T02:14:53.539Z,87.12
2017-01-12T02:15:53.539Z,87.63
2017-01-12T02:16:53.539Z,87.16
2017-01-12T02:17:53.127Z,87.49
2017-01-12T02:18:53.123Z,87.54
2017-01-12T02:19:53.531Z,87.16
2017-01-12T02:20:53.523Z,87.12
2017-01-12T02:21:53.532Z,87.16
2017-01-12T02:22:53.520Z,87.3
2017-01-12T02:23:53.516Z,87.21
2017-01-12T02:24:53.508Z,87.16
2017-01-12T02:25:53.100Z,87.16
2017-01-12T02:26:53.100Z,87.3
2017-01-12T02:27:53.092Z,87.45
2017-01-12T02:28:53.504Z,87.16
2017-01-12T02:29:53.504Z,87.12
2017-01-12T02:30:53.493Z,87.54
2017-01-12T02:31:53.492Z,87.21
2017-01-12T02:32:53.493Z,87.21
2017-01-12T02:33:53.485Z,87.25
2017-01-12T02:34:53.069Z,87.49
2017-01-12T02:35:53.069Z,87.02
2017-01-12T02:36:53.469Z,87.16
2017-01-12T02:37:53.465Z,87.35
2017-01-12T02:38:53.473Z,87.35
2017-01-12T02:39:53.057Z,87.25
2017-01-12T02:40:53.466Z,87.3
2017-01-12T02:41:53.041Z,87.25
2017-01-12T02:42:53.050Z,87.35
2017-01-12T02:43:53.042Z,87.35
2017-01-12T02:44:53.446Z,87.35
2017-01-12T02:45:53.450Z,87.54
2017-01-12T02:46:53.442Z,87.54
2017-01-12T02:47:53.442Z,87.54
2017-01-12T02:48:53.430Z,87.54
2017-01-12T02:49:53.442Z,86.97
2017-01-12T02:50:53.023Z,87.54
2017-01-12T02:51:53.046Z,87.49
2017-01-12T02:52:53.419Z,86.68
2017-01-12T02:53:53.419Z,87.54
2017-01-12T02:54:53.447Z,87.06
2017-01-12T02:55:53.419Z,87.25
2017-01-12T02:56:53.411Z,87.54
2017-01-12T02:57:53.411Z,87.25
2017-01-12T02:58:53.407Z,87.25
2017-01-12T02:59:52.987Z,87.25
2017-01-12T03:00:52.984Z,87.16
2017-01-12T03:01:53.387Z,87.16
2017-01-12T03:02:53.396Z,87.12
2017-01-12T03:03:53.385Z,87.21
2017-01-12T03:04:52.980Z,87.35
2017-01-12T03:05:53.384Z,87.49
2017-01-12T03:06:53.380Z,87.63
2017-01-12T03:07:52.964Z,87.73
2017-01-12T03:08:52.960Z,87.35
2017-01-12T03:09:52.956Z,87.54
2017-01-12T03:10:53.360Z,87.35
2017-01-12T03:11:53.368Z,87.3
2017-01-12T03:12:53.361Z,87.49
2017-01-12T03:13:53.348Z,87.77
2017-01-12T03:14:53.345Z,87.73
2017-01-12T03:15:52.942Z,87.54
2017-01-12T03:16:52.928Z,87.3
2017-01-12T03:17:52.933Z,87.49
2017-01-12T03:18:52.929Z,87.68
2017-01-12T03:19:53.333Z,87.82
2017-01-12T03:20:53.329Z,87.35
2017-01-12T03:21:53.317Z,87.35
2017-01-12T03:22:53.330Z,87.82
2017-01-12T03:23:52.909Z,87.73
2017-01-12T03:24:53.317Z,87.54
2017-01-12T03:25:53.316Z,87.73
2017-01-12T03:26:53.317Z,87.35
2017-01-12T03:27:53.306Z,87.82
2017-01-12T03:28:53.309Z,87.54
2017-01-12T03:29:53.306Z,87.68
2017-01-12T03:30:53.294Z,87.12
2017-01-12T03:31:53.293Z,87.92
2017-01-12T03:32:52.882Z,87.92
2017-01-12T03:33:52.882Z,88.1
2017-01-12T03:34:52.870Z,88.01
2017-01-12T03:35:52.874Z,87.63
2017-01-12T03:36:53.270Z,87.97
2017-01-12T03:37:53.274Z,87.92
2017-01-12T03:38:53.270Z,87.82
2017-01-12T03:39:53.266Z,87.63
2017-01-12T03:40:53.267Z,87.82
2017-01-12T03:41:52.851Z,88.1
2017-01-12T03:42:52.847Z,88.1
2017-01-12T03:43:52.839Z,87.63
2017-01-12T03:44:53.260Z,87.73
2017-01-12T03:45:53.279Z,88.01
2017-01-12T03:46:52.839Z,88.01
2017-01-12T03:47:53.248Z,87.82
2017-01-12T03:48:53.235Z,87.4
2017-01-12T03:49:53.235Z,87.87
2017-01-12T03:50:52.823Z,88.1
2017-01-12T03:51:53.227Z,88.01
2017-01-12T03:52:53.223Z,87.87
2017-01-12T03:53:53.219Z,87.97
2017-01-12T03:54:52.815Z,87.97
2017-01-12T03:55:53.215Z,88.35
2017-01-12T03:56:53.207Z,87.68
2017-01-12T03:57:53.208Z,88.16
2017-01-12T03:58:52.792Z,88.06
2017-01-12T03:59:53.203Z,88.73
2017-01-12T04:00:52.787Z,88.63
2017-01-12T04:01:53.192Z,88.73
2017-01-12T04:02:53.196Z,88.54
2017-01-12T04:03:53.192Z,88.68
2017-01-12T04:04:53.188Z,88.58
2017-01-12T04:05:53.184Z,88.58
2017-01-12T04:06:53.180Z,88.58
2017-01-12T04:07:53.180Z,88.58
2017-01-12T04:08:52.764Z,88.35
2017-01-12T04:09:52.761Z,88.54
2017-01-12T04:10:53.169Z,88.77
2017-01-12T04:11:53.161Z,88.63
2017-01-12T04:12:53.161Z,88.44
2017-01-12T04:13:53.161Z,88.73
2017-01-12T04:14:53.154Z,88.73
2017-01-12T04:15:53.158Z,88.54
2017-01-12T04:16:52.738Z,88.73
2017-01-12T04:17:52.730Z,89.01
2017-01-12T04:18:52.730Z,88.82
2017-01-12T04:19:53.131Z,88.82
2017-01-12T04:20:53.134Z,88.73
2017-01-12T04:21:53.133Z,88.82
2017-01-12T04:22:53.127Z,88.92
2017-01-12T04:23:53.129Z,89.11
2017-01-12T04:24:52.703Z,89.11
2017-01-12T04:25:52.711Z,88.82
2017-01-12T04:26:52.703Z,89.2
2017-01-12T04:27:53.108Z,89.29
2017-01-12T04:28:53.104Z,89.01
2017-01-12T04:29:53.103Z,89.2
2017-01-12T04:30:53.100Z,89.39
2017-01-12T04:31:53.096Z,89.58
2017-01-12T04:32:53.096Z,89.11
2017-01-12T04:33:53.096Z,89.67
2017-01-12T04:34:52.676Z,89.11
2017-01-12T04:35:52.676Z,89.77
2017-01-12T04:36:52.672Z,89.39
2017-01-12T04:37:53.080Z,89.58
2017-01-12T04:38:53.076Z,89.58
2017-01-12T04:39:53.068Z,89.58
2017-01-12T04:40:53.072Z,89.48
2017-01-12T04:41:52.652Z,89.29
2017-01-12T04:42:52.648Z,89.67
2017-01-12T04:43:53.056Z,89.58
2017-01-12T04:44:53.056Z,89.2
2017-01-12T04:45:53.056Z,89.29
2017-01-12T04:46:53.048Z,89.29
2017-01-12T04:47:53.044Z,89.29
2017-01-12T04:48:52.628Z,89.2
2017-01-12T04:49:53.036Z,89.29
2017-01-12T04:50:53.032Z,89.48
2017-01-12T04:51:53.028Z,89.77
2017-01-12T04:52:53.024Z,89.58
2017-01-12T04:53:53.028Z,89.48
2017-01-12T04:54:53.024Z,89.48
2017-01-12T04:55:53.020Z,89.29
2017-01-12T04:56:52.596Z,89.58
2017-01-12T04:57:53.004Z,89.58
2017-01-12T04:58:53.008Z,89.67
2017-01-12T04:59:53.000Z,89.77
2017-01-12T05:00:53.000Z,89.77
2017-01-12T05:01:52.988Z,89.58
2017-01-12T05:02:52.992Z,89.48
2017-01-12T05:03:52.580Z,89.58
2017-01-12T05:04:52.576Z,89.77
2017-01-12T05:05:52.984Z,89.58
2017-01-12T05:06:52.984Z,89.81
2017-01-12T05:07:52.976Z,89.39
2017-01-12T05:08:52.972Z,89.2
2017-01-12T05:09:52.556Z,89.58
2017-01-12T05:10:52.557Z,89.58
2017-01-12T05:11:52.552Z,89.48
2017-01-12T05:12:52.965Z,89.48
2017-01-12T05:13:52.964Z,89.58
2017-01-12T05:14:52.952Z,89.67
2017-01-12T05:15:52.949Z,89.39
2017-01-12T05:16:52.533Z,89.2
2017-01-12T05:17:52.533Z,89.48
2017-01-12T05:18:52.941Z,89.29
2017-01-12T05:19:52.941Z,89.58
2017-01-12T05:20:52.929Z,89.58
2017-01-12T05:21:52.929Z,89.48
2017-01-12T05:22:52.512Z,89.67
2017-01-12T05:23:52.509Z,89.58
2017-01-12T05:24:52.913Z,89.96
2017-01-12T05:25:52.921Z,89.86
2017-01-12T05:26:52.917Z,89.96
2017-01-12T05:27:52.909Z,89.96
2017-01-12T05:28:52.909Z,89.96
2017-01-12T05:29:52.505Z,90.05
2017-01-12T05:30:52.902Z,89.86
2017-01-12T05:31:52.894Z,90.43
2017-01-12T05:32:52.890Z,90.05
2017-01-12T05:33:52.890Z,89.96
2017-01-12T05:34:52.882Z,89.86
2017-01-12T05:35:52.474Z,89.77
2017-01-12T05:36:52.622Z,90.24
2017-01-12T05:37:52.878Z,89.67
2017-01-12T05:38:52.883Z,89.96
2017-01-12T05:39:52.862Z,89.29
2017-01-12T05:40:52.865Z,89.58
2017-01-12T05:41:52.866Z,89.39
2017-01-12T05:42:52.858Z,89.2
2017-01-12T05:43:52.855Z,89.48
2017-01-12T05:44:52.846Z,89.58
2017-01-12T05:45:52.855Z,89.58
2017-01-12T05:46:52.846Z,89.48
2017-01-12T05:47:52.835Z,89.2
2017-01-12T05:48:52.426Z,89.48
2017-01-12T05:49:52.835Z,89.58
2017-01-12T05:50:52.830Z,89.29
2017-01-12T05:51:52.826Z,89.67
2017-01-12T05:52:52.822Z,89.48
2017-01-12T05:53:52.822Z,89.58
2017-01-12T05:54:52.410Z,89.58
2017-01-12T05:55:52.402Z,89.39
2017-01-12T05:56:52.811Z,89.01
2017-01-12T05:57:52.806Z,89.48
2017-01-12T05:58:52.803Z,89.58
2017-01-12T05:59:52.802Z,89.58
2017-01-12T06:00:52.798Z,89.39
2017-01-12T06:01:52.383Z,89.58
2017-01-12T06:02:52.790Z,89.29
2017-01-12T06:03:52.786Z,89.01
2017-01-12T06:04:52.782Z,88.96
2017-01-12T06:05:52.782Z,89.2
2017-01-12T06:06:52.366Z,88.87
2017-01-12T06:07:52.362Z,88.77
2017-01-12T06:08:52.798Z,88.92
2017-01-12T06:09:52.766Z,89.06
2017-01-12T06:10:52.762Z,88.87
2017-01-12T06:11:52.758Z,88.2
2017-01-12T06:12:52.343Z,88.96
2017-01-12T06:13:52.339Z,88.77
2017-01-12T06:14:52.751Z,88.48
2017-01-12T06:15:52.743Z,88.58
2017-01-12T06:16:52.743Z,88.29
2017-01-12T06:17:52.735Z,88.39
2017-01-12T06:18:52.323Z,88.29
2017-01-12T06:19:52.324Z,88.77
2017-01-12T06:20:52.723Z,88.68
2017-01-12T06:21:52.726Z,88.58
2017-01-12T06:22:52.722Z,88.68
2017-01-12T06:23:52.719Z,87.92
2017-01-12T06:24:52.303Z,88.68
2017-01-12T06:25:52.711Z,88.2
2017-01-12T06:26:52.703Z,88.1
2017-01-12T06:27:52.703Z,88.39
2017-01-12T06:28:52.697Z,87.82
2017-01-12T06:29:52.703Z,87.82
2017-01-12T06:30:52.284Z,88.2
2017-01-12T06:31:52.687Z,87.82
2017-01-12T06:32:52.683Z,88.01
2017-01-12T06:33:52.684Z,88.39
2017-01-12T06:34:52.684Z,88.77
2017-01-12T06:35:52.675Z,88.68
2017-01-12T06:36:52.260Z,88.48
2017-01-12T06:37:52.271Z,88.58
2017-01-12T06:38:52.668Z,88.68
2017-01-12T06:39:52.664Z,88.29
2017-01-12T06:40:52.660Z,88.2
2017-01-12T06:41:52.244Z,87.63
2017-01-12T06:42:52.247Z,88.2
2017-01-12T06:43:52.655Z,88.1
2017-01-12T06:44:52.651Z,88.2
2017-01-12T06:45:52.647Z,87.73
2017-01-12T06:46:52.638Z,88.39
2017-01-12T06:47:52.223Z,87.92
2017-01-12T06:48:52.630Z,88.01
2017-01-12T06:49:52.630Z,88.01
2017-01-12T06:50:52.626Z,87.92
2017-01-12T06:51:52.218Z,88.1
2017-01-12T06:52:52.621Z,87.54
2017-01-12T06:53:52.201Z,87.54
2017-01-12T06:54:52.605Z,87.45
2017-01-12T06:55:52.609Z,87.54
2017-01-12T06:56:52.606Z,87.54
2017-01-12T06:57:52.605Z,87.35
2017-01-12T06:58:52.597Z,87.54
2017-01-12T06:59:52.185Z,87.25
2017-01-12T07:00:52.181Z,87.35
2017-01-12T07:01:52.589Z,87.54
2017-01-12T07:02:52.581Z,87.45
2017-01-12T07:03:52.584Z,87.73
2017-01-12T07:04:52.584Z,87.73
2017-01-12T07:05:52.157Z,87.73
2017-01-12T07:06:52.820Z,88.01
2017-01-12T07:07:52.556Z,87.45
2017-01-12T07:08:52.564Z,87.35
2017-01-12T07:09:52.556Z,87.82
2017-01-12T07:10:52.552Z,87.92
2017-01-12T07:11:52.552Z,88.01
2017-01-12T07:12:52.132Z,87.92
2017-01-12T07:13:52.552Z,87.92
2017-01-12T07:14:52.540Z,87.92
2017-01-12T07:15:52.132Z,87.92
2017-01-12T07:16:52.536Z,88.01
2017-01-12T07:17:52.532Z,87.45
2017-01-12T07:18:52.112Z,87.63
2017-01-12T07:19:52.517Z,88.01
2017-01-12T07:20:52.528Z,88.1
2017-01-12T07:21:52.517Z,87.82
2017-01-12T07:22:52.510Z,87.92
2017-01-12T07:23:52.105Z,88.2
2017-01-12T07:24:52.101Z,87.92
2017-01-12T07:25:52.097Z,88.48
2017-01-12T07:26:52.501Z,88.58
2017-01-12T07:27:52.497Z,88.48
2017-01-12T07:28:52.489Z,88.2
2017-01-12T07:29:52.493Z,88.01
2017-01-12T07:30:52.489Z,88.01
2017-01-12T07:31:52.077Z,87.82
2017-01-12T07:32:52.066Z,87.82
2017-01-12T07:33:52.481Z,88.2
2017-01-12T07:34:52.066Z,87.92
2017-01-12T07:35:52.466Z,88.2
2017-01-12T07:36:52.466Z,87.92
2017-01-12T07:37:52.050Z,87.92
2017-01-12T07:38:52.050Z,88.1
2017-01-12T07:39:52.046Z,87.73
2017-01-12T07:40:52.454Z,87.73
2017-01-12T07:41:52.451Z,88.2
2017-01-12T07:42:52.467Z,88.01
2017-01-12T07:43:52.439Z,87.35
2017-01-12T07:44:52.031Z,87.54
2017-01-12T07:45:52.031Z,87.45
2017-01-12T07:46:52.027Z,87.82
2017-01-12T07:47:52.431Z,87.16
2017-01-12T07:48:52.427Z,87.06
2017-01-12T07:49:52.427Z,87.45
2017-01-12T07:50:52.420Z,87.45
2017-01-12T07:51:52.419Z,87.16
2017-01-12T07:52:52.412Z,87.73
2017-01-12T07:53:52.004Z,87.54
2017-01-12T07:54:52.411Z,88.01
2017-01-12T07:55:52.024Z,88.2
2017-01-12T07:56:52.404Z,88.1
2017-01-12T07:57:52.417Z,88.01
2017-01-12T07:58:52.384Z,87.82
2017-01-12T07:59:52.397Z,88.01
2017-01-12T08:00:52.389Z,88.39
2017-01-12T08:01:51.973Z,88.39
2017-01-12T08:02:51.989Z,88.39
2017-01-12T08:03:52.377Z,88.2
2017-01-12T08:04:52.377Z,87.92
2017-01-12T08:05:52.370Z,88.29
2017-01-12T08:06:52.374Z,88.29
2017-01-12T08:07:52.366Z,88.1
2017-01-12T08:08:52.361Z,88.39
2017-01-12T08:09:51.945Z,88.1
2017-01-12T08:10:51.946Z,88.48
2017-01-12T08:11:52.358Z,87.92
2017-01-12T08:12:52.346Z,88.01
2017-01-12T08:13:52.350Z,88.1
2017-01-12T08:14:52.342Z,87.54
2017-01-12T08:15:52.370Z,87.54
2017-01-12T08:16:52.330Z,87.45
2017-01-12T08:17:52.334Z,87.25
2017-01-12T08:18:52.330Z,87.16
2017-01-12T08:19:51.918Z,87.35
2017-01-12T08:20:51.910Z,87.35
2017-01-12T08:21:51.910Z,86.78
2017-01-12T08:22:51.906Z,86.78
2017-01-12T08:23:51.902Z,87.06
2017-01-12T08:24:52.310Z,86.78
2017-01-12T08:25:52.307Z,86.49
2017-01-12T08:26:52.307Z,86.4
2017-01-12T08:27:52.295Z,86.78
2017-01-12T08:28:52.299Z,86.59
2017-01-12T08:29:52.295Z,85.45
2017-01-12T08:30:52.287Z,85.74
2017-01-12T08:31:52.291Z,85.64
2017-01-12T08:32:52.288Z,85.74
2017-01-12T08:33:52.276Z,86.11
2017-01-12T08:34:52.271Z,86.21
2017-01-12T08:35:52.280Z,85.26
2017-01-12T08:36:52.272Z,85.74
2017-01-12T08:37:52.272Z,85.26
2017-01-12T08:38:51.848Z,85.45
2017-01-12T08:39:51.849Z,85.74
2017-01-12T08:40:51.852Z,85.45
2017-01-12T08:41:51.876Z,85.36
2017-01-12T08:42:51.840Z,85.07
2017-01-12T08:43:51.840Z,84.69
2017-01-12T08:44:52.237Z,84.78
2017-01-12T08:45:51.833Z,85.07
2017-01-12T08:46:51.829Z,84.88
2017-01-12T08:47:52.237Z,84.41
2017-01-12T08:48:52.233Z,84.59
2017-01-12T08:49:52.229Z,84.12
2017-01-12T08:50:52.229Z,84.5
2017-01-12T08:51:51.818Z,84.22
2017-01-12T08:52:52.218Z,84.12
2017-01-12T08:53:52.217Z,84.5
2017-01-12T08:54:52.213Z,84.07
2017-01-12T08:55:52.209Z,83.59
2017-01-12T08:56:51.797Z,84.07
2017-01-12T08:57:51.797Z,84.17
2017-01-12T08:58:52.202Z,84.03
2017-01-12T08:59:52.202Z,84.26
2017-01-12T09:00:52.198Z,83.69
2017-01-12T09:01:51.778Z,83.78
2017-01-12T09:02:52.187Z,83.5
2017-01-12T09:03:52.186Z,83.69
2017-01-12T09:04:52.183Z,83.22
2017-01-12T09:05:52.183Z,82.55
2017-01-12T09:06:52.179Z,82.74
2017-01-12T09:07:52.171Z,83.4
2017-01-12T09:08:52.167Z,83.03
2017-01-12T09:09:52.167Z,82.84
2017-01-12T09:10:52.167Z,82.27
2017-01-12T09:11:52.155Z,82.36
2017-01-12T09:12:51.751Z,82.46
2017-01-12T09:13:52.160Z,81.7
2017-01-12T09:14:51.740Z,81.7
2017-01-12T09:15:51.736Z,81.98
2017-01-12T09:16:51.731Z,81.51
2017-01-12T09:17:52.240Z,81.7
2017-01-12T09:18:52.132Z,81.13
2017-01-12T09:19:52.136Z,81.13
2017-01-12T09:20:52.132Z,80.65
2017-01-12T09:21:51.720Z,80.75
2017-01-12T09:22:52.124Z,80.46
2017-01-12T09:23:51.709Z,80.94
2017-01-12T09:24:52.116Z,81.04
2017-01-12T09:25:51.736Z,79.8
2017-01-12T09:26:51.704Z,80.08
2017-01-12T09:27:52.105Z,80.46
2017-01-12T09:28:52.105Z,79.99
2017-01-12T09:29:51.701Z,79.33
2017-01-12T09:30:52.105Z,80.08
2017-01-12T09:31:52.097Z,79.71
2017-01-12T09:32:52.097Z,79.99
2017-01-12T09:33:51.683Z,80.03
2017-01-12T09:34:51.678Z,79.65
2017-01-12T09:35:52.093Z,79.84
2017-01-12T09:36:52.085Z,79.94
2017-01-12T09:37:52.086Z,79.46
2017-01-12T09:38:52.077Z,79.08
2017-01-12T09:39:51.670Z,79.55
2017-01-12T09:40:52.074Z,79.46
2017-01-12T09:41:51.658Z,78.99
2017-01-12T09:42:52.070Z,79.17
2017-01-12T09:43:52.062Z,78.7
2017-01-12T09:44:52.061Z,78.99
2017-01-12T09:45:52.046Z,78.89
2017-01-12T09:46:51.642Z,78.42
2017-01-12T09:47:52.054Z,77.84
2017-01-12T09:48:52.046Z,77.28
2017-01-12T09:49:52.050Z,77.75
2017-01-12T09:50:52.038Z,77.7
2017-01-12T09:51:51.627Z,78.08
2017-01-12T09:52:52.039Z,77.89
2017-01-12T09:53:52.035Z,76.84
2017-01-12T09:54:52.035Z,77.03
2017-01-12T09:55:52.023Z,77.12
2017-01-12T09:56:51.611Z,77.12
2017-01-12T09:57:52.026Z,77.31
2017-01-12T09:58:52.019Z,76.93
2017-01-12T09:59:51.607Z,77.41
2017-01-12T10:00:51.603Z,76.93
2017-01-12T10:01:52.015Z,77.03
2017-01-12T10:02:52.011Z,76.93
2017-01-12T10:03:51.595Z,76.56
2017-01-12T10:04:52.003Z,76.56
2017-01-12T10:05:52.008Z,76.37
2017-01-12T10:06:51.991Z,76.27
2017-01-12T10:07:51.580Z,76.27
2017-01-12T10:08:51.991Z,75.79
2017-01-12T10:09:51.979Z,75.89
2017-01-12T10:10:51.572Z,75.79
2017-01-12T10:11:51.568Z,75.79
2017-01-12T10:12:51.980Z,75.7
2017-01-12T10:13:51.560Z,75.7
2017-01-12T10:14:51.968Z,75.99
2017-01-12T10:15:51.972Z,75.7
2017-01-12T10:16:51.548Z,75.6
2017-01-12T10:17:51.960Z,75.74
2017-01-12T10:18:51.964Z,75.36
2017-01-12T10:19:51.958Z,75.55
2017-01-12T10:20:51.952Z,75.17
2017-01-12T10:21:51.541Z,75.26
2017-01-12T10:22:51.949Z,75.17
2017-01-12T10:23:51.944Z,75.17
2017-01-12T10:24:51.532Z,75.36
2017-01-12T10:25:51.945Z,75.36
2017-01-12T10:26:51.936Z,75.36
2017-01-12T10:27:51.525Z,75.17
2017-01-12T10:28:51.937Z,75.26
2017-01-12T10:29:51.520Z,75.26
2017-01-12T10:30:51.924Z,74.98
2017-01-12T10:31:51.920Z,75.36
2017-01-12T10:32:51.925Z,75.07
2017-01-12T10:33:51.944Z,75.07
2017-01-12T10:34:51.916Z,74.98
2017-01-12T10:35:51.908Z,75.45
2017-01-12T10:36:51.497Z,75.32
2017-01-12T10:37:51.917Z,75.93
2017-01-12T10:38:51.497Z,75.93
2017-01-12T10:39:51.905Z,75.17
2017-01-12T10:40:51.889Z,75.79
2017-01-12T10:41:51.896Z,75.74
2017-01-12T10:42:51.888Z,75.64
2017-01-12T10:43:51.893Z,75.55
2017-01-12T10:44:51.889Z,75.64
2017-01-12T10:45:51.884Z,75.99
2017-01-12T10:46:51.504Z,76.03
2017-01-12T10:47:51.469Z,75.79
2017-01-12T10:48:51.881Z,75.45
2017-01-12T10:49:51.464Z,75.64
2017-01-12T10:50:51.869Z,75.84
2017-01-12T10:51:51.456Z,75.36
2017-01-12T10:52:51.869Z,75.17
2017-01-12T10:53:51.453Z,76.12
2017-01-12T10:54:51.860Z,75.45
2017-01-12T10:55:51.857Z,75.93
2017-01-12T10:56:51.849Z,75.45
2017-01-12T10:57:51.437Z,75.36
2017-01-12T10:58:51.845Z,75.36
2017-01-12T10:59:51.437Z,75.36
2017-01-12T11:00:51.845Z,75.45
2017-01-12T11:01:51.837Z,75.55
2017-01-12T11:02:51.836Z,75.64
2017-01-12T11:03:51.420Z,75.45
2017-01-12T11:04:51.828Z,74.98
2017-01-12T11:05:51.416Z,75.36
2017-01-12T11:06:51.828Z,74.98
2017-01-12T11:07:51.403Z,74.69
2017-01-12T11:08:51.819Z,74.79
2017-01-12T11:09:51.815Z,75.17
2017-01-12T11:10:51.815Z,75.36
2017-01-12T11:11:51.815Z,75.26
2017-01-12T11:12:51.807Z,75.07
2017-01-12T11:13:51.807Z,74.26
2017-01-12T11:14:51.806Z,74.26
2017-01-12T11:15:51.798Z,74.26
2017-01-12T11:16:51.386Z,74.26
2017-01-12T11:17:51.794Z,74.35
2017-01-12T11:18:51.790Z,74.35
2017-01-12T11:19:51.778Z,74.26
2017-01-12T11:20:51.786Z,74.22
2017-01-12T11:21:51.374Z,73.74
2017-01-12T11:22:51.778Z,74.22
2017-01-12T11:23:51.773Z,74.22
2017-01-12T11:24:51.769Z,74.03
2017-01-12T11:25:51.777Z,74.22
2017-01-12T11:26:51.768Z,74.22
2017-01-12T11:27:51.769Z,74.41
2017-01-12T11:28:51.765Z,73.84
2017-01-12T11:29:51.352Z,74.12
2017-01-12T11:30:51.344Z,74.12
2017-01-12T11:31:51.341Z,74.03
2017-01-12T11:32:51.748Z,74.6
2017-01-12T11:33:51.748Z,73.93
2017-01-12T11:34:51.748Z,74.03
2017-01-12T11:35:51.747Z,73.88
2017-01-12T11:36:51.739Z,73.97
2017-01-12T11:37:51.728Z,73.88
2017-01-12T11:38:51.739Z,73.69
2017-01-12T11:39:51.735Z,74.16
2017-01-12T11:40:51.323Z,73.69
2017-01-12T11:41:51.731Z,73.59
2017-01-12T11:42:51.727Z,74.16
2017-01-12T11:43:51.314Z,73.02
2017-01-12T11:44:51.310Z,73.4
2017-01-12T11:45:51.714Z,73.49
2017-01-12T11:46:51.298Z,73.49
2017-01-12T11:47:51.305Z,73.11
2017-01-12T11:48:51.706Z,73.11
2017-01-12T11:49:51.710Z,73.02
2017-01-12T11:50:51.694Z,73.11
2017-01-12T11:51:51.701Z,73.02
2017-01-12T11:52:51.702Z,72.92
2017-01-12T11:53:51.285Z,72.74
2017-01-12T11:54:51.689Z,72.92
2017-01-12T11:55:51.693Z,73.4
2017-01-12T11:56:51.688Z,73.59
2017-01-12T11:57:51.684Z,73.4
2017-01-12T11:58:51.273Z,73.4
2017-01-12T11:59:51.676Z,73.4
2017-01-12T12:00:51.675Z,73.4
2017-01-12T12:01:51.671Z,73.49
2017-01-12T12:02:51.671Z,73.49
2017-01-12T12:03:51.663Z,73.21
2017-01-12T12:04:51.251Z,73.11
2017-01-12T12:05:51.659Z,73.3
2017-01-12T12:06:51.654Z,73.11
2017-01-12T12:07:51.654Z,73.49
2017-01-12T12:08:51.242Z,73.46
2017-01-12T12:09:51.641Z,73.55
2017-01-12T12:10:51.649Z,73.36
2017-01-12T12:11:51.645Z,73.93
2017-01-12T12:12:51.225Z,73.55
2017-01-12T12:13:51.645Z,73.84
2017-01-12T12:14:51.637Z,74.12
2017-01-12T12:15:51.217Z,74.12
2017-01-12T12:16:51.221Z,74.22
2017-01-12T12:17:51.633Z,74.88
2017-01-12T12:18:51.221Z,74.69
2017-01-12T12:19:51.629Z,75.26
2017-01-12T12:20:51.210Z,75.26
2017-01-12T12:21:51.621Z,75.36
2017-01-12T12:22:51.613Z,75.07
2017-01-12T12:23:51.200Z,74.88
2017-01-12T12:24:51.200Z,75.17
2017-01-12T12:25:51.612Z,75.36
2017-01-12T12:26:51.613Z,75.17
2017-01-12T12:27:51.192Z,75.17
2017-01-12T12:28:51.600Z,74.88
2017-01-12T12:29:51.600Z,75.26
2017-01-12T12:30:51.597Z,75.17
2017-01-12T12:31:51.592Z,75.17
2017-01-12T12:32:51.589Z,75.07
2017-01-12T12:33:51.593Z,75.55
2017-01-12T12:34:51.581Z,75.64
2017-01-12T12:35:51.177Z,75.17
2017-01-12T12:36:51.585Z,75.55
2017-01-12T12:37:51.581Z,75.45
2017-01-12T12:38:51.578Z,75.45
2017-01-12T12:39:51.161Z,75.36
2017-01-12T12:40:51.569Z,75.74
2017-01-12T12:41:51.573Z,76.03
2017-01-12T12:42:51.158Z,75.93
2017-01-12T12:43:51.562Z,76.21
2017-01-12T12:44:51.561Z,75.84
2017-01-12T12:45:51.562Z,76.25
2017-01-12T12:46:51.558Z,76.35
2017-01-12T12:47:51.554Z,76.06
2017-01-12T12:48:51.146Z,75.96
2017-01-12T12:49:51.546Z,76.16
2017-01-12T12:50:51.130Z,76.35
2017-01-12T12:51:51.538Z,76.44
2017-01-12T12:52:51.134Z,76.25
2017-01-12T12:53:51.542Z,76.06
2017-01-12T12:54:51.126Z,75.78
2017-01-12T12:55:51.534Z,76.31